Southwest Florida International Airport

KRSW · Florida, United States

METAR history KRSW · Southwest Florida International Airport

Below you see METARs of the last few days. Select a year to browse through older METARs, from the year 2007 onwards.

April 23, 2024

Time Code Weather Temp. Visibility Ceiling Wind METAR/SPECI
11:53
V
26 °C 10 mi - 060° 060° 12 - 18 kt METAR KRSW 231553Z 06012G18KT 10SM CLR 26/12 A3016 RMK AO2 SLP208 T02560122
10:53
V
23 °C 10 mi - 060° 060° 13 kt METAR KRSW 231453Z 06013KT 10SM CLR 23/12 A3016 RMK AO2 SLP211 T02330122 51014
09:53
V
22 °C 10 mi - 040° 040° 8 kt METAR KRSW 231353Z 04008KT 10SM CLR 22/12 A3016 RMK AO2 SLP209 T02170117
08:53
V
19 °C 10 mi - 040° 040° 10 kt METAR KRSW 231253Z 04010KT 10SM CLR 19/11 A3014 RMK AO2 SLP203 T01890106
07:53
V
16 °C 10 mi - 050° 050° 7 kt METAR KRSW 231153Z 05007KT 10SM CLR 16/11 A3012 RMK AO2 SLP197 T01610106 10172 20144 53016
06:53
V
14 °C 10 mi - 040° 040° 6 kt METAR KRSW 231053Z 04006KT 10SM CLR 14/11 A3010 RMK AO2 SLP190 T01440106
05:53
V
15 °C 10 mi - 040° 040° 8 kt METAR KRSW 230953Z 04008KT 10SM CLR 15/11 A3009 RMK AO2 SLP185 T01500111
04:53
V
16 °C 10 mi - 040° 040° 7 kt METAR KRSW 230853Z AUTO 04007KT 10SM 16/12 A3007 RMK AO2 SLP181 T01560117 56006
03:53
V
16 °C 10 mi - 040° 040° 8 kt METAR KRSW 230753Z AUTO 04008KT 10SM 16/12 A3007 RMK AO2 SLP181 T01610117
02:53
V
17 °C 10 mi - 040° 040° 7 kt METAR KRSW 230653Z AUTO 04007KT 10SM 17/12 A3008 RMK AO2 SLP184 T01670122
01:53
V
17 °C 10 mi - 050° 050° 10 kt METAR KRSW 230553Z AUTO 05010KT 10SM 17/13 A3009 RMK AO2 SLP187 T01720128 10244 20172 50004
00:53
V
18 °C 10 mi - 040° 040° 8 kt METAR KRSW 230453Z 04008KT 10SM CLR 18/13 A3010 RMK AO2 SLP190 T01830133 402780183

April 22, 2024

Time Code Weather Temp. Visibility Ceiling Wind METAR/SPECI
23:53
V
19 °C 10 mi - 040° 040° 9 kt METAR KRSW 230353Z 04009KT 10SM CLR 19/14 A3009 RMK AO2 SLP188 T01940144
22:53
V
21 °C 10 mi - 060° 060° 13 - 22 kt METAR KRSW 230253Z 06013G22KT 10SM CLR 21/16 A3008 RMK AO2 SLP182 T02060156 51031
21:53
V
22 °C 10 mi - 040° 040° 8 kt METAR KRSW 230153Z 04008KT 10SM CLR 22/14 A3005 RMK AO2 SLP172 T02220144
20:53
V
23 °C 10 mi - 330° 330° 7 kt METAR KRSW 230053Z 33007KT 10SM CLR 23/16 A3002 RMK AO2 SLP162 T02330161
19:53
V
24 °C 10 mi - 320° 320° 7 kt METAR KRSW 222353Z 32007KT 10SM CLR 24/16 A2999 RMK AO2 SLP151 T02440156 10278 20244 53013
18:53
V
26 °C 10 mi - 320° 320° 7 kt METAR KRSW 222253Z 32007KT 10SM CLR 26/17 A2996 RMK AO2 SLP143 T02560167
17:53
V
27 °C 10 mi - 300° 300° 9 - 18 kt METAR KRSW 222153Z 30009G18KT 10SM 27/18 A2995 RMK AO2 SLP140 T02670178
16:53
V
27 °C 10 mi 4,500 ft 300° 300° 8 kt METAR KRSW 222053Z 30008KT 10SM BKN045 27/19 A2995 RMK AO2 SLP139 T02670189 56015
16:00
V
27 °C 10 mi 4,500 ft 310° 310° 6 kt METAR KRSW 222000Z 31006KT 10SM BKN045 27/18 A2996 RMK AO2 T02720178
15:53
M
27 °C 10 mi 2,500 ft 290° 290° 7 kt METAR KRSW 221953Z 29007KT 10SM BKN025 27/18 A2996 RMK AO2 SLP143 T02670178
14:53
M
27 °C 10 mi 2,500 ft 320° 320° 8 kt METAR KRSW 221853Z 32008KT 10SM BKN025 27/19 A2998 RMK AO2 SLP150 T02670189
13:53
M
27 °C 10 mi 2,300 ft 300° 300° 6 kt METAR KRSW 221753Z 30006KT 10SM BKN023 27/19 A3000 RMK AO2 SLP154 T02670194 10278 20217 58002
13:07
M
27 °C 10 mi 2,300 ft 350° 350° 6 kt METAR KRSW 221707Z 35006KT 10SM BKN023 27/21 A3000 RMK AO2 T02720206
13:00
V
28 °C 10 mi - 320° 320° 7 kt METAR KRSW 221700Z 32007KT 10SM 28/21 A3000 RMK AO2 T02780206
12:53
M
27 °C 10 mi 2,300 ft 310° 310° 8 kt METAR KRSW 221653Z 31008KT 10SM BKN023 27/21 A3000 RMK AO2 SLP155 T02670206
11:55
M
27 °C 10 mi 2,500 ft 330° 330° 8 kt METAR KRSW 221555Z 33008KT 10SM BKN025 27/20 A3001 RMK AO2 T02720200
10:53
V
26 °C 10 mi - 010° 010° 7 kt METAR KRSW 221453Z 01007KT 10SM SCT009 26/21 A3000 RMK AO2 SLP157 T02610211 53008
09:53
V
24 °C 10 mi - 330° 330° 4 kt METAR KRSW 221353Z 33004KT 10SM SCT009 24/22 A3000 RMK AO2 SLP154 T02440217
09:25
V
23 °C 9 mi - 300° 300° 3 kt METAR KRSW 221325Z 30003KT 9SM SCT009 23/22 A2999 RMK AO2 T02330222
09:13
V
23 °C 9 mi - 330° 330° 3 kt METAR KRSW 221313Z 33003KT 9SM SCT014 23/22 A2998 RMK AO2 T02330217
08:53
V
23 °C 10 mi - 350° 350° 4 kt METAR KRSW 221253Z 35004KT 10SM SCT048 23/21 A2996 RMK AO2 SLP142 T02280211
07:53
V
22 °C 10 mi - 230° 230° 5 kt METAR KRSW 221153Z 23005KT 10SM SCT048 22/21 A2998 RMK AO2 LTG DSNT E AND SE RAE19 TSE1056B1057E26 SLP149 P0015 60032 70032 T02170211 10244 20217 53019
07:42
V
22 °C 10 mi - 240° 240° 3 kt METAR KRSW 221142Z 24003KT 10SM SCT048 22/21 A2997 RMK AO2 LTG DSNT E AND SE AND W RAE19 TSE1056B1057E26 P0015 T02170211
07:32
V
22 °C 10 mi - 240° 240° 3 kt METAR KRSW 221132Z 24003KT 10SM VCTS SCT048 22/21 A2997 RMK AO2 LTG DSNT E AND SE AND W RAE19 TSE1056B1057E26 P0015 T02170206
07:09
V
22 °C 7 mi - 240° 240° 9 kt METAR KRSW 221109Z 24009KT 7SM -TSRA SCT026 22/21 A2996 RMK AO2 TSE1056B1057 P0015 T02170206
07:03
I
22 °C 1¼ mi - 240° 240° 9 kt METAR KRSW 221103Z 24009KT 1 1/4SM +TSRA BR 22/21 A2996 RMK AO2 LTG DSNT SW TSE1056B1057 P0014 T02220211
06:56
I
23 °C 1½ mi - Var Var 5 kt METAR KRSW 221056Z VRB05KT 1 1/2SM VCTS +RA BR 23/22 A2996 RMK AO2 LTG DSNT SW AND W TSE56 P0006 T02280217
06:34
V
24 °C 8 mi - 240° 240° 3 kt METAR KRSW 221034Z 24003KT 8SM VCTS -RA SCT005 24/23 A2992 RMK AO2 LTG DSNT NE AND E AND W RAB02 TSE0959B10E25 P0001 T02390228
06:31
V
24 °C 8 mi - 230° 230° 4 kt METAR KRSW 221031Z 23004KT 8SM -RA FEW035 24/23 A2992 RMK AO2 LTG DSNT NE AND E AND W RAB02 TSE0959B10E25 P0001 T02390228
06:16
V
24 °C 10 mi - 240° 240° 4 kt METAR KRSW 221016Z 24004KT 10SM -TSRA FEW035 24/23 A2992 RMK AO2 LTG DSNT W RAB02 TSE0959B10 P0000 T02390228
05:59
V
24 °C 10 mi - 260° 260° 6 kt METAR KRSW 220959Z 26006KT 10SM VCTS SCT045 24/23 A2993 RMK AO2 LTG DSNT NE AND W TSE59 T02440228
04:53
V
24 °C 10 mi - 270° 270° 5 kt METAR KRSW 220853Z AUTO 27005KT 10SM 24/22 A2993 RMK AO2 LTG DSNT N SLP131 T02390222 55006
03:53
V
23 °C 10 mi - 250° 250° 3 kt METAR KRSW 220753Z AUTO 25003KT 10SM 23/22 A2992 RMK AO2 LTG DSNT NW SLP130 T02280217
02:53
V
24 °C 10 mi - 270° 270° 4 kt METAR KRSW 220653Z AUTO 27004KT 10SM 24/22 A2993 RMK AO2 SLP131 T02390217
01:53
V
24 °C 10 mi - 260° 260° 5 kt METAR KRSW 220553Z AUTO 26005KT 10SM 24/22 A2995 RMK AO2 SLP138 T02390217 10256 20233 58008
00:53
V
23 °C 10 mi - 250° 250° 4 kt METAR KRSW 220453Z 25004KT 10SM 23/21 A2996 RMK AO2 SLP143 T02330211 403000217

April 21, 2024

Time Code Weather Temp. Visibility Ceiling Wind METAR/SPECI
23:53
V
24 °C 10 mi - 260° 260° 4 kt METAR KRSW 220353Z 26004KT 10SM CLR 24/21 A2997 RMK AO2 SLP147 T02390211
22:53
V
24 °C 10 mi - 250° 250° 4 kt METAR KRSW 220253Z 25004KT 10SM CLR 24/21 A2997 RMK AO2 SLP146 T02390211 50009
21:53
V
24 °C 10 mi - 250° 250° 4 kt METAR KRSW 220153Z 25004KT 10SM CLR 24/21 A2997 RMK AO2 SLP147 T02440211
20:53
V
24 °C 10 mi - 230° 230° 7 kt METAR KRSW 220053Z 23007KT 10SM FEW031 24/21 A2996 RMK AO2 SLP142 T02440211
19:53
V
26 °C 10 mi - 220° 220° 7 kt METAR KRSW 212353Z 22007KT 10SM FEW031 26/21 A2994 RMK AO2 SLP137 T02560206 10300 20256 55006
18:53
V
27 °C 10 mi - 230° 230° 8 kt METAR KRSW 212253Z 23008KT 10SM FEW031 27/20 A2993 RMK AO2 SLP134 T02670200
17:53
V
27 °C 10 mi - 250° 250° 10 kt METAR KRSW 212153Z 25010KT 10SM SCT030 27/20 A2995 RMK AO2 SLP137 T02720200
16:53
V
28 °C 10 mi - 250° 250° 11 - 16 kt METAR KRSW 212053Z 25011G16KT 10SM SCT030 28/19 A2996 RMK AO2 SLP142 T02830194 58019
15:53
V
28 °C 10 mi - 250° 250° 8 - 18 kt METAR KRSW 211953Z 25008G18KT 10SM SCT025 28/20 A2998 RMK AO2 SLP149 T02830200
14:53
V
29 °C 10 mi - 250° 250° 13 kt METAR KRSW 211853Z 25013KT 10SM FEW030 29/20 A3001 RMK AO2 SLP159 T02940200
13:53
V
29 °C 10 mi - 250° 250° 12 - 20 kt METAR KRSW 211753Z 25012G20KT 10SM FEW030 29/19 A3002 RMK AO2 SLP161 T02890194 10294 20217 58002
12:53
V
29 °C 10 mi - 230° 230° 11 kt METAR KRSW 211653Z 23011KT 10SM FEW030 29/21 A3002 RMK AO2 SLP161 T02940211
11:53
V
29 °C 10 mi - 250° 250° 11 kt METAR KRSW 211553Z 25011KT 10SM FEW025 29/22 A3002 RMK AO2 SLP164 T02890217
10:53
V
28 °C 10 mi - 230° 230° 9 kt METAR KRSW 211453Z 23009KT 10SM FEW020 28/21 A3002 RMK AO2 SLP163 T02830211 53007
09:53
V
27 °C 10 mi - 200° 200° 11 kt METAR KRSW 211353Z COR 20011KT 10SM FEW020 27/21 A3001 RMK AO2 SLP160 T02670211
08:53
V
24 °C 10 mi - 170° 170° 5 kt METAR KRSW 211253Z 17005KT 10SM CLR 24/21 A3000 RMK AO2 SLP157 T02390211
07:53
V
22 °C 10 mi - 140° 140° 4 kt METAR KRSW 211153Z 14004KT 10SM BCFG CLR 22/21 A3000 RMK AO2 SLP156 T02170206 10228 20217 53009
06:53
V
22 °C 10 mi - 360° 360° 0 kt METAR KRSW 211053Z 00000KT 10SM BCFG CLR 22/21 A3000 RMK AO2 SLP154 T02170206
05:53
V
22 °C 10 mi - 150° 150° 4 kt METAR KRSW 210953Z 15004KT 10SM CLR 22/21 A2997 RMK AO2 SLP147 T02170206
04:53
V
22 °C 10 mi - 130° 130° 4 kt METAR KRSW 210853Z 13004KT 10SM 22/21 A2998 RMK AO2 SLP147 T02220211 55012
03:53
V
22 °C 10 mi - 360° 360° 0 kt METAR KRSW 210753Z 00000KT 10SM 22/21 A2997 RMK AO2 SLP147 T02170206
02:53
V
22 °C 10 mi - 160° 160° 5 kt METAR KRSW 210653Z 16005KT 10SM 22/21 A2998 RMK AO2 SLP150 T02170206
01:53
V
22 °C 10 mi - 360° 360° 0 kt METAR KRSW 210553Z 00000KT 10SM 22/20 A3001 RMK AO2 SLP159 T02170200 10261 20217 58014
Report a change